createdAt,value
2023-02-11T00:03:41.214Z,100107.95
2023-02-11T00:09:03.897Z,100103.87
2023-02-11T00:14:27.445Z,100107.56
2023-02-11T00:19:52.731Z,100104.16
2023-02-11T00:25:14.765Z,100096.33
2023-02-11T00:30:38.012Z,100089.56
2023-02-11T00:36:05.140Z,100093.00
2023-02-11T00:41:26.662Z,100081.45
2023-02-11T00:46:48.290Z,100073.27
2023-02-11T00:52:09.824Z,100063.52
2023-02-11T00:57:31.652Z,100037.67
2023-02-11T01:02:55.729Z,100012.98
2023-02-11T01:08:17.918Z,100011.28
2023-02-11T01:13:40.251Z,99997.69
2023-02-11T01:19:02.178Z,99988.55
2023-02-11T01:24:24.211Z,99992.56
2023-02-11T01:29:45.943Z,100001.81
2023-02-11T01:35:08.469Z,99987.90
2023-02-11T01:40:30.908Z,99977.07
2023-02-11T01:46:01.786Z,99982.41
2023-02-11T01:51:37.448Z,99973.80
2023-02-11T01:57:21.545Z,99974.94
2023-02-11T02:03:06.364Z,99968.68
2023-02-11T02:08:32.396Z,99951.61
2023-02-11T02:13:58.239Z,99934.14
2023-02-11T02:19:23.279Z,99915.89
2023-02-11T02:25:19.831Z,99906.39
2023-02-11T02:31:11.239Z,99901.21
2023-02-11T02:36:52.261Z,99890.22
2023-02-11T02:42:14.890Z,99877.14
2023-02-11T02:47:36.618Z,99862.82
2023-02-11T02:53:52.141Z,99852.50
2023-02-11T02:59:38.252Z,99837.91
2023-02-11T03:05:19.047Z,99834.55
2023-02-11T03:10:50.068Z,99841.35
2023-02-11T03:16:28.141Z,99849.20
2023-02-11T03:21:52.066Z,99849.05
2023-02-11T03:27:39.171Z,99836.87
2023-02-11T03:33:11.715Z,99831.38
2023-02-11T03:38:36.619Z,99821.13
2023-02-11T03:43:58.589Z,99803.00
2023-02-11T03:49:22.321Z,99800.65
2023-02-11T03:54:46.356Z,99783.05
2023-02-11T04:00:09.523Z,99761.20
2023-02-11T04:05:37.042Z,99755.38
2023-02-11T04:10:59.283Z,99745.45
2023-02-11T04:16:21.322Z,99730.20
2023-02-11T04:21:43.106Z,99718.89
2023-02-11T04:27:04.762Z,99715.08
2023-02-11T04:32:26.284Z,99712.25
2023-02-11T04:37:48.315Z,99712.59
2023-02-11T04:43:10.344Z,99718.61
2023-02-11T04:48:32.375Z,99729.40
2023-02-11T04:53:54.307Z,99723.33
2023-02-11T04:59:16.135Z,99732.70
2023-02-11T05:04:38.061Z,99731.98
2023-02-11T05:10:00.110Z,99720.69
2023-02-11T05:15:21.844Z,99706.15
2023-02-11T05:20:44.255Z,99701.28
2023-02-11T05:26:06.280Z,99712.47
2023-02-11T05:31:28.609Z,99723.79
2023-02-11T05:36:51.843Z,99734.50
2023-02-11T05:42:13.993Z,99737.70
2023-02-11T05:47:35.914Z,99728.60
2023-02-11T05:52:58.134Z,99695.31
2023-02-11T05:58:20.166Z,99695.14
2023-02-11T06:03:42.496Z,99678.77
2023-02-11T06:09:09.414Z,99678.38
2023-02-11T06:14:34.556Z,99680.55
2023-02-11T06:19:57.358Z,99671.56
2023-02-11T06:25:19.256Z,99674.14
2023-02-11T06:30:41.174Z,99672.11
2023-02-11T06:36:04.217Z,99656.04
2023-02-11T06:41:26.335Z,99658.08
2023-02-11T06:46:48.226Z,99668.86
2023-02-11T06:52:10.178Z,99663.65
2023-02-11T06:57:32.325Z,99664.52
2023-02-11T07:02:54.079Z,99667.95
2023-02-11T07:08:15.887Z,99654.12
2023-02-11T07:13:40.027Z,99651.06
2023-02-11T07:19:02.491Z,99656.70
2023-02-11T07:24:25.100Z,99660.41
2023-02-11T07:29:49.017Z,99648.90
2023-02-11T07:35:10.957Z,99643.05
2023-02-11T07:40:32.892Z,99635.66
2023-02-11T07:45:57.214Z,99621.16
2023-02-11T07:51:27.678Z,99606.09
2023-02-11T07:56:49.247Z,99615.30
2023-02-11T08:02:11.382Z,99611.61
2023-02-11T08:07:33.359Z,99613.50
2023-02-11T08:12:55.586Z,99608.93
2023-02-11T08:18:17.428Z,99619.15
2023-02-11T08:23:43.763Z,99630.77
2023-02-11T08:29:11.885Z,99634.04
2023-02-11T08:34:34.307Z,99626.39
2023-02-11T08:39:56.179Z,99617.52
2023-02-11T08:45:17.908Z,99619.40
2023-02-11T08:50:40.146Z,99627.13
2023-02-11T08:56:02.476Z,99628.20
2023-02-11T09:01:28.829Z,99609.30
2023-02-11T09:06:53.180Z,99614.81
2023-02-11T09:12:15.587Z,99622.00
2023-02-11T09:17:37.701Z,99638.61
2023-02-11T09:22:59.937Z,99643.11
2023-02-11T09:28:22.224Z,99648.02
2023-02-11T09:33:49.577Z,99646.45
2023-02-11T09:39:18.320Z,99658.12
2023-02-11T09:44:41.100Z,99643.47
2023-02-11T09:50:06.301Z,99635.80
2023-02-11T09:55:38.163Z,99642.20
2023-02-11T10:01:06.607Z,99635.27
2023-02-11T10:06:34.410Z,99635.02
2023-02-11T10:12:34.263Z,99618.77
2023-02-11T10:17:56.106Z,99596.50
2023-02-11T10:23:24.939Z,99589.20
2023-02-11T10:28:53.309Z,99565.05
2023-02-11T10:34:15.676Z,99524.33
2023-02-11T10:39:40.061Z,99503.92
2023-02-11T10:45:06.444Z,99479.47
2023-02-11T10:50:30.437Z,99463.02
2023-02-11T10:55:57.529Z,99462.04
2023-02-11T11:01:24.837Z,99471.90
2023-02-11T11:06:47.244Z,99486.73
2023-02-11T11:12:24.485Z,99481.32
2023-02-11T11:17:46.699Z,99474.90
2023-02-11T11:23:18.160Z,99479.10
2023-02-11T11:28:43.664Z,99478.27
2023-02-11T11:34:23.008Z,99471.56
2023-02-11T11:39:53.248Z,99458.80
2023-02-11T11:45:23.065Z,99448.52
2023-02-11T11:50:54.066Z,99442.60
2023-02-11T11:56:23.453Z,99459.93
2023-02-11T12:02:16.709Z,99487.38
2023-02-11T12:07:50.430Z,99484.19
2023-02-11T12:13:12.372Z,99491.48
2023-02-11T12:18:57.165Z,99507.23
2023-02-11T12:24:57.201Z,99495.70
2023-02-11T12:30:21.971Z,99492.46
2023-02-11T12:35:58.952Z,99496.04
2023-02-11T12:41:55.205Z,99469.27
2023-02-11T12:47:37.704Z,99444.80
2023-02-11T12:53:18.604Z,99409.96
2023-02-11T12:58:45.441Z,99388.14
2023-02-11T13:04:30.615Z,99399.92
2023-02-11T13:10:24.327Z,99431.65
2023-02-11T13:15:52.455Z,99408.29
2023-02-11T13:21:31.906Z,99402.06
2023-02-11T13:27:21.069Z,99412.30
2023-02-11T13:32:58.351Z,99398.42
2023-02-11T13:38:23.594Z,99342.44
2023-02-11T13:43:57.565Z,99321.10
2023-02-11T13:49:25.319Z,99343.01
2023-02-11T13:54:50.349Z,99347.23
2023-02-11T14:00:34.189Z,99351.20
2023-02-11T14:06:27.112Z,99368.45
2023-02-11T14:12:22.853Z,99375.24
2023-02-11T14:17:44.974Z,99366.50
2023-02-11T14:23:07.455Z,99387.86
2023-02-11T14:28:34.560Z,99391.98
2023-02-11T14:34:15.386Z,99395.49
2023-02-11T14:39:55.958Z,99400.84
2023-02-11T14:45:28.414Z,99402.42
2023-02-11T14:50:59.144Z,99401.48
2023-02-11T14:56:24.854Z,99396.63
2023-02-11T15:01:54.945Z,99406.09
2023-02-11T15:07:17.507Z,99412.23
2023-02-11T15:12:39.255Z,99406.73
2023-02-11T15:18:02.905Z,99417.11
2023-02-11T15:23:27.608Z,99421.70
2023-02-11T15:28:52.185Z,99429.05
2023-02-11T15:34:14.393Z,99440.19
2023-02-11T15:39:38.282Z,99438.15
2023-02-11T15:45:15.204Z,99444.13
2023-02-11T15:50:41.037Z,99455.77
2023-02-11T15:56:21.154Z,99457.14
2023-02-11T16:01:42.891Z,99454.05
2023-02-11T16:07:05.288Z,99460.63
2023-02-11T16:12:30.718Z,99463.41
2023-02-11T16:17:53.241Z,99468.63
2023-02-11T16:23:22.601Z,99466.16
2023-02-11T16:28:44.853Z,99467.77
2023-02-11T16:34:13.681Z,99475.34
2023-02-11T16:39:36.030Z,99482.66
2023-02-11T16:44:58.161Z,99483.58
2023-02-11T16:50:24.513Z,99486.27
2023-02-11T16:55:46.641Z,99489.17
2023-02-11T17:01:08.722Z,99491.00
2023-02-11T17:06:30.794Z,99491.48
2023-02-11T17:11:53.123Z,99490.11
2023-02-11T17:17:16.055Z,99493.75
2023-02-11T17:22:37.785Z,99501.50
2023-02-11T17:28:00.042Z,99501.31
2023-02-11T17:33:22.242Z,99502.88
2023-02-11T17:38:44.391Z,99502.15
2023-02-11T17:44:07.849Z,99504.82
2023-02-11T17:49:29.743Z,99504.92
2023-02-11T17:54:51.871Z,99506.02
2023-02-11T18:00:15.711Z,99507.83
2023-02-11T18:05:38.236Z,99509.16
2023-02-11T18:11:00.262Z,99503.82
2023-02-11T18:16:23.865Z,99513.11
2023-02-11T18:21:48.985Z,99511.48
2023-02-11T18:27:10.956Z,99518.08
2023-02-11T18:32:33.113Z,99519.61
2023-02-11T18:37:55.035Z,99521.77
2023-02-11T18:43:17.731Z,99526.70
2023-02-11T18:48:39.801Z,99530.05
2023-02-11T18:54:01.978Z,99527.65
2023-02-11T18:59:23.958Z,99536.91
2023-02-11T19:04:45.938Z,99534.17
2023-02-11T19:10:09.622Z,99533.58
2023-02-11T19:15:31.485Z,99539.91
2023-02-11T19:20:53.580Z,99547.16
2023-02-11T19:26:15.513Z,99552.79
2023-02-11T19:31:37.658Z,99554.83
2023-02-11T19:37:01.781Z,99557.89
2023-02-11T19:42:25.888Z,99561.78
2023-02-11T19:47:51.384Z,99564.00
2023-02-11T19:53:16.315Z,99563.08
2023-02-11T19:58:39.533Z,99555.48
2023-02-11T20:04:01.462Z,99560.39
2023-02-11T20:09:23.499Z,99565.49
2023-02-11T20:14:45.275Z,99562.46
2023-02-11T20:20:08.357Z,99565.07
2023-02-11T20:25:30.478Z,99567.28
2023-02-11T20:30:59.135Z,99570.84
2023-02-11T20:36:21.658Z,99586.14
2023-02-11T20:41:46.343Z,99592.60
2023-02-11T20:47:08.027Z,99593.98
2023-02-11T20:52:30.258Z,99593.84
2023-02-11T20:57:52.101Z,99600.44
2023-02-11T21:03:14.148Z,99606.05
2023-02-11T21:08:36.147Z,99609.95
2023-02-11T21:13:58.985Z,99610.80
2023-02-11T21:19:21.442Z,99614.20
2023-02-11T21:24:43.654Z,99623.71
2023-02-11T21:30:08.510Z,99619.10
2023-02-11T21:35:37.337Z,99624.77
2023-02-11T21:41:04.249Z,99630.31
2023-02-11T21:46:26.953Z,99644.54
2023-02-11T21:51:48.759Z,99654.00
2023-02-11T21:57:10.683Z,99655.91
2023-02-11T22:02:32.541Z,99656.06
2023-02-11T22:07:54.519Z,99660.14
2023-02-11T22:13:16.676Z,99663.89
2023-02-11T22:18:39.207Z,99668.98
2023-02-11T22:24:00.830Z,99667.20
2023-02-11T22:29:22.662Z,99672.92
2023-02-11T22:34:44.714Z,99685.75
2023-02-11T22:40:07.552Z,99688.05
2023-02-11T22:45:29.714Z,99695.89
2023-02-11T22:50:52.121Z,99700.13
2023-02-11T22:56:15.739Z,99709.72
2023-02-11T23:01:38.256Z,99716.99
2023-02-11T23:07:00.539Z,99718.67
2023-02-11T23:12:22.299Z,99721.50
2023-02-11T23:17:44.129Z,99725.27
2023-02-11T23:23:06.892Z,99722.78
2023-02-11T23:28:29.271Z,99721.60
2023-02-11T23:33:51.974Z,99727.34
2023-02-11T23:39:15.437Z,99734.14
2023-02-11T23:44:38.096Z,99729.92
2023-02-11T23:50:00.177Z,99735.95
2023-02-11T23:55:21.952Z,99737.29
